createdAt,value
2019-05-02T00:01:42.176Z,8.60
2019-05-02T00:04:45.973Z,8.73
2019-05-02T00:07:53.765Z,8.75
2019-05-02T00:10:55.121Z,8.87
2019-05-02T00:13:59.328Z,8.86
2019-05-02T00:17:03.126Z,8.62
2019-05-02T00:20:08.599Z,8.70
2019-05-02T00:23:12.844Z,8.79
2019-05-02T00:26:16.599Z,8.66
2019-05-02T00:29:23.826Z,8.67
2019-05-02T00:32:25.950Z,8.77
2019-05-02T00:35:29.687Z,8.88
2019-05-02T00:38:38.252Z,8.79
2019-05-02T00:41:40.451Z,8.98
2019-05-02T00:44:47.045Z,8.88
2019-05-02T00:47:56.456Z,8.77
2019-05-02T00:51:00.391Z,8.79
2019-05-02T00:54:04.253Z,8.90
2019-05-02T00:57:07.947Z,8.85
2019-05-02T01:00:13.497Z,8.96
2019-05-02T01:03:18.012Z,8.88
2019-05-02T01:06:21.928Z,8.83
2019-05-02T01:09:25.614Z,8.84
2019-05-02T01:12:29.370Z,8.99
2019-05-02T01:15:33.046Z,8.66
2019-05-02T01:18:37.152Z,8.63
2019-05-02T01:21:42.237Z,8.72
2019-05-02T01:24:45.892Z,8.79
2019-05-02T01:28:17.271Z,8.67
2019-05-02T01:31:24.318Z,8.60
2019-05-02T01:34:56.411Z,8.42
2019-05-02T01:38:19.181Z,8.43
2019-05-02T01:41:23.950Z,8.34
2019-05-02T01:44:31.141Z,8.52
2019-05-02T01:47:34.347Z,8.52
2019-05-02T01:50:39.123Z,8.54
2019-05-02T01:53:43.235Z,8.47
2019-05-02T01:56:47.251Z,8.46
2019-05-02T01:59:50.938Z,8.77
2019-05-02T02:02:54.891Z,8.69
2019-05-02T02:05:58.565Z,8.61
2019-05-02T02:09:03.373Z,8.72
2019-05-02T02:12:09.752Z,8.72
2019-05-02T02:15:14.759Z,8.63
2019-05-02T02:18:22.139Z,8.59
2019-05-02T02:21:46.958Z,8.63
2019-05-02T02:25:09.686Z,8.68
2019-05-02T02:28:13.384Z,8.78
2019-05-02T02:31:19.773Z,8.74
2019-05-02T02:34:28.881Z,8.85
2019-05-02T02:37:32.272Z,8.65
2019-05-02T02:40:35.994Z,8.66
2019-05-02T02:43:39.967Z,8.72
2019-05-02T02:46:45.046Z,8.60
2019-05-02T02:49:48.737Z,8.75
2019-05-02T02:52:52.894Z,8.78
2019-05-02T02:56:02.058Z,8.91
2019-05-02T02:59:02.132Z,8.72
2019-05-02T03:02:10.128Z,8.68
2019-05-02T03:05:11.526Z,8.79
2019-05-02T03:08:15.287Z,9.10
2019-05-02T03:11:23.820Z,8.84
2019-05-02T03:14:29.576Z,8.73
2019-05-02T03:17:33.272Z,8.75
2019-05-02T03:20:40.647Z,8.83
2019-05-02T03:23:42.605Z,8.68
2019-05-02T03:26:48.607Z,8.79
2019-05-02T03:29:53.128Z,8.72
2019-05-02T03:33:06.452Z,8.80
2019-05-02T03:36:02.303Z,8.84
2019-05-02T03:39:14.845Z,9.00
2019-05-02T03:42:13.047Z,8.93
2019-05-02T03:45:16.722Z,9.04
2019-05-02T03:48:25.557Z,8.86
2019-05-02T03:51:26.269Z,9.05
2019-05-02T03:54:30.890Z,9.03
2019-05-02T03:57:36.149Z,9.14
2019-05-02T04:00:39.936Z,8.98
2019-05-02T04:03:43.961Z,9.15
2019-05-02T04:06:47.785Z,9.05
2019-05-02T04:09:51.855Z,9.13
2019-05-02T04:12:58.480Z,8.88
2019-05-02T04:16:02.372Z,9.11
2019-05-02T04:19:06.388Z,9.17
2019-05-02T04:22:12.056Z,9.19
2019-05-02T04:25:16.036Z,9.08
2019-05-02T04:28:21.772Z,9.22
2019-05-02T04:31:31.384Z,9.25
2019-05-02T04:34:31.303Z,9.22
2019-05-02T04:37:41.272Z,9.23
2019-05-02T04:40:44.906Z,9.32
2019-05-02T04:43:54.707Z,9.18
2019-05-02T04:46:51.545Z,9.44
2019-05-02T04:49:55.250Z,9.20
2019-05-02T04:52:59.346Z,9.18
2019-05-02T04:56:06.898Z,9.21
2019-05-02T04:59:17.616Z,9.39
2019-05-02T05:02:14.280Z,9.20
2019-05-02T05:05:25.708Z,9.24
2019-05-02T05:08:26.425Z,9.42
2019-05-02T05:11:29.122Z,9.33
2019-05-02T05:14:39.194Z,9.28
2019-05-02T05:17:38.858Z,9.33
2019-05-02T05:20:46.053Z,9.52
2019-05-02T05:24:10.185Z,9.56
2019-05-02T05:27:18.825Z,9.59
2019-05-02T05:30:19.517Z,9.59
2019-05-02T05:33:23.313Z,9.59
2019-05-02T05:36:32.518Z,9.61
2019-05-02T05:39:33.062Z,9.80
2019-05-02T05:42:37.918Z,9.71
2019-05-02T05:45:51.198Z,9.59
2019-05-02T05:48:47.690Z,9.55
2019-05-02T05:51:54.278Z,9.59
2019-05-02T05:54:57.893Z,9.57
2019-05-02T05:58:12.299Z,9.69
2019-05-02T06:01:10.136Z,9.72
2019-05-02T06:04:13.867Z,9.72
2019-05-02T06:07:20.033Z,9.79
2019-05-02T06:10:23.770Z,9.77
2019-05-02T06:13:27.455Z,9.64
2019-05-02T06:16:31.148Z,9.68
2019-05-02T06:19:34.842Z,9.95
2019-05-02T06:22:38.724Z,9.87
2019-05-02T06:25:42.939Z,9.80
2019-05-02T06:28:46.671Z,9.83
2019-05-02T06:31:50.438Z,9.84
2019-05-02T06:34:54.125Z,9.81
2019-05-02T06:37:57.809Z,9.93
2019-05-02T06:41:01.506Z,9.90
2019-05-02T06:44:05.266Z,9.84
2019-05-02T06:47:08.965Z,10.07
2019-05-02T06:50:13.760Z,9.94
2019-05-02T06:53:17.519Z,9.99
2019-05-02T06:56:21.602Z,9.96
2019-05-02T06:59:25.690Z,9.96
2019-05-02T07:02:33.666Z,10.00
2019-05-02T07:05:34.883Z,10.06
2019-05-02T07:08:38.563Z,9.96
2019-05-02T07:11:42.612Z,10.07
2019-05-02T07:14:46.300Z,9.99
2019-05-02T07:17:50.013Z,9.99
2019-05-02T07:20:53.780Z,10.02
2019-05-02T07:23:57.462Z,10.06
2019-05-02T07:27:02.387Z,10.00
2019-05-02T07:30:08.462Z,9.97
2019-05-02T07:33:12.252Z,9.96
2019-05-02T07:36:16.045Z,9.86
2019-05-02T07:39:20.029Z,9.93
2019-05-02T07:42:24.052Z,10.01
2019-05-02T07:45:27.768Z,10.00
2019-05-02T07:48:31.502Z,10.09
2019-05-02T07:51:35.629Z,9.96
2019-05-02T07:54:39.335Z,9.85
2019-05-02T07:57:43.110Z,10.05
2019-05-02T08:00:46.832Z,10.05
2019-05-02T08:03:50.553Z,9.99
2019-05-02T08:06:54.256Z,10.16
2019-05-02T08:09:58.009Z,10.36
2019-05-02T08:13:01.796Z,10.14
2019-05-02T08:16:05.670Z,10.28
2019-05-02T08:19:09.406Z,10.37
2019-05-02T08:22:14.800Z,10.21
2019-05-02T08:25:19.274Z,10.09
2019-05-02T08:28:28.629Z,9.93
2019-05-02T08:31:32.720Z,10.04
2019-05-02T08:34:36.445Z,10.01
2019-05-02T08:37:41.443Z,10.08
2019-05-02T08:40:47.723Z,9.99
2019-05-02T08:43:51.422Z,10.07
2019-05-02T08:46:55.426Z,9.96
2019-05-02T08:49:59.172Z,10.03
2019-05-02T08:53:02.909Z,10.00
2019-05-02T08:56:06.709Z,10.08
2019-05-02T08:59:10.449Z,9.99
2019-05-02T09:02:14.483Z,10.08
2019-05-02T09:05:18.669Z,10.01
2019-05-02T09:08:22.396Z,10.01
2019-05-02T09:11:26.119Z,9.97
2019-05-02T09:14:29.840Z,10.00
2019-05-02T09:17:38.397Z,9.87
2019-05-02T09:20:39.533Z,10.05
2019-05-02T09:23:43.995Z,9.84
2019-05-02T09:26:47.883Z,10.02
2019-05-02T09:29:51.952Z,9.93
2019-05-02T09:32:57.047Z,9.91
2019-05-02T09:36:02.357Z,9.88
2019-05-02T09:39:07.508Z,9.99
2019-05-02T09:42:15.188Z,9.83
2019-05-02T09:45:22.769Z,9.85
2019-05-02T09:48:27.074Z,9.89
2019-05-02T09:51:32.472Z,10.02
2019-05-02T09:54:37.109Z,10.01
2019-05-02T09:57:42.883Z,9.94
2019-05-02T10:01:02.425Z,9.88
2019-05-02T10:04:06.628Z,10.03
2019-05-02T10:07:12.107Z,9.86
2019-05-02T10:10:16.941Z,9.94
2019-05-02T10:13:22.703Z,10.11
2019-05-02T10:16:27.445Z,9.91
2019-05-02T10:19:32.699Z,9.95
2019-05-02T10:22:39.346Z,9.91
2019-05-02T10:25:46.756Z,10.19
2019-05-02T10:28:50.334Z,9.98
2019-05-02T10:31:54.008Z,10.06
2019-05-02T10:34:57.711Z,10.05
2019-05-02T10:38:02.506Z,10.20
2019-05-02T10:41:06.856Z,10.06
2019-05-02T10:44:12.747Z,10.20
2019-05-02T10:47:16.130Z,10.22
2019-05-02T10:50:24.708Z,10.26
2019-05-02T10:53:28.446Z,10.42
2019-05-02T10:56:32.499Z,10.51
2019-05-02T10:59:36.662Z,10.45
2019-05-02T11:02:57.645Z,10.74
2019-05-02T11:06:07.422Z,10.73
2019-05-02T11:09:12.037Z,10.75
2019-05-02T11:12:25.504Z,10.69
2019-05-02T11:15:46.883Z,10.77
2019-05-02T11:19:02.827Z,10.78
2019-05-02T11:22:06.616Z,10.93
2019-05-02T11:25:12.080Z,11.01
2019-05-02T11:28:16.029Z,10.88
2019-05-02T11:31:21.693Z,10.81
2019-05-02T11:34:25.432Z,10.84
2019-05-02T11:37:29.140Z,11.01
2019-05-02T11:40:32.949Z,11.06
2019-05-02T11:43:42.409Z,11.09
2019-05-02T11:46:46.835Z,11.01
2019-05-02T11:49:53.935Z,10.93
2019-05-02T11:52:53.985Z,11.00
2019-05-02T11:55:58.370Z,11.12
2019-05-02T11:59:03.158Z,11.10
2019-05-02T12:02:19.070Z,11.05
2019-05-02T12:05:26.550Z,11.20
2019-05-02T12:08:31.816Z,11.22
2019-05-02T12:11:35.066Z,11.25
2019-05-02T12:14:38.888Z,11.15
2019-05-02T12:17:42.634Z,11.24
2019-05-02T12:20:46.776Z,11.27
2019-05-02T12:23:52.602Z,11.47
2019-05-02T12:26:56.027Z,11.77
2019-05-02T12:29:59.767Z,12.13
2019-05-02T12:33:03.599Z,12.15
2019-05-02T12:36:11.942Z,12.22
2019-05-02T12:39:16.062Z,12.17
2019-05-02T12:42:20.158Z,12.23
2019-05-02T12:45:24.562Z,12.19
2019-05-02T12:48:28.429Z,12.30
2019-05-02T12:51:32.264Z,12.34
2019-05-02T12:54:35.955Z,12.34
2019-05-02T12:57:39.713Z,12.39
2019-05-02T13:00:43.626Z,12.42
2019-05-02T13:03:56.443Z,12.34
2019-05-02T13:07:02.035Z,12.40
2019-05-02T13:10:06.366Z,12.41
2019-05-02T13:13:12.279Z,12.41
2019-05-02T13:16:16.154Z,12.39
2019-05-02T13:19:23.669Z,12.37
2019-05-02T13:22:52.682Z,12.25
2019-05-02T13:25:56.605Z,12.22
2019-05-02T13:29:02.367Z,12.32
2019-05-02T13:32:36.971Z,12.37
2019-05-02T13:35:44.399Z,12.37
2019-05-02T13:38:48.118Z,12.31
2019-05-02T13:41:52.321Z,12.42
2019-05-02T13:45:02.297Z,12.47
2019-05-02T13:48:06.643Z,12.49
2019-05-02T13:51:11.862Z,12.43
2019-05-02T13:54:15.775Z,12.41
2019-05-02T13:57:21.656Z,12.34
2019-05-02T14:00:31.933Z,12.36
2019-05-02T14:03:35.694Z,12.45
2019-05-02T14:06:39.471Z,12.33
2019-05-02T14:09:58.253Z,12.44
2019-05-02T14:12:59.943Z,12.31
2019-05-02T14:16:03.730Z,12.47
2019-05-02T14:19:07.703Z,12.50
2019-05-02T14:22:12.893Z,13.08
2019-05-02T14:25:16.926Z,13.76
2019-05-02T14:28:22.429Z,13.96
2019-05-02T14:31:26.325Z,13.94
2019-05-02T14:34:55.147Z,13.85
2019-05-02T14:38:08.995Z,13.56
2019-05-02T14:41:23.050Z,13.36
2019-05-02T14:44:36.253Z,13.33
2019-05-02T14:47:32.577Z,13.23
2019-05-02T14:50:41.884Z,13.03
2019-05-02T14:53:42.990Z,13.04
2019-05-02T14:57:07.295Z,12.99
2019-05-02T15:00:11.471Z,13.04
2019-05-02T15:03:19.176Z,12.97
2019-05-02T15:06:20.881Z,12.98
2019-05-02T15:09:26.762Z,12.87
2019-05-02T15:12:30.048Z,12.87
2019-05-02T15:15:40.702Z,12.73
2019-05-02T15:18:39.205Z,12.76
2019-05-02T15:21:47.145Z,12.63
2019-05-02T15:24:48.688Z,12.61
2019-05-02T15:27:58.166Z,12.53
2019-05-02T15:31:11.903Z,12.51
2019-05-02T15:34:46.294Z,12.59
2019-05-02T15:37:43.278Z,12.64
2019-05-02T15:40:50.589Z,12.76
2019-05-02T15:43:52.503Z,12.75
2019-05-02T15:46:58.444Z,12.95
2019-05-02T15:50:03.018Z,13.05
2019-05-02T15:53:16.297Z,13.01
2019-05-02T15:56:22.187Z,12.95
2019-05-02T15:59:37.469Z,12.92
2019-05-02T16:02:38.970Z,12.90
2019-05-02T16:05:45.090Z,12.93
2019-05-02T16:08:48.181Z,13.05
2019-05-02T16:11:53.214Z,13.15
2019-05-02T16:14:57.679Z,13.00
2019-05-02T16:18:05.094Z,12.94
2019-05-02T16:21:11.948Z,12.90
2019-05-02T16:24:23.289Z,12.62
2019-05-02T16:27:46.619Z,12.43
2019-05-02T16:30:52.637Z,12.14
2019-05-02T16:33:57.525Z,11.96
2019-05-02T16:37:13.509Z,11.85
2019-05-02T16:40:23.933Z,11.54
2019-05-02T16:43:26.612Z,11.20
2019-05-02T16:46:32.275Z,11.16
2019-05-02T16:49:36.463Z,10.83
2019-05-02T16:52:43.773Z,10.72
2019-05-02T16:55:45.730Z,10.81
2019-05-02T16:58:49.530Z,10.66
2019-05-02T17:01:54.596Z,10.64
2019-05-02T17:05:00.284Z,10.40
2019-05-02T17:08:29.609Z,10.12
2019-05-02T17:11:36.635Z,10.06
2019-05-02T17:14:43.519Z,10.12
2019-05-02T17:17:47.692Z,10.00
2019-05-02T17:20:53.422Z,9.82
2019-05-02T17:23:57.246Z,10.17
2019-05-02T17:27:02.541Z,9.73
2019-05-02T17:30:06.965Z,9.67
2019-05-02T17:33:14.263Z,9.84
2019-05-02T17:36:16.102Z,9.66
2019-05-02T17:39:19.907Z,9.77
2019-05-02T17:42:25.794Z,9.78
2019-05-02T17:45:33.305Z,9.81
2019-05-02T17:48:36.675Z,9.51
2019-05-02T17:52:05.687Z,9.69
2019-05-02T17:55:08.757Z,9.74
2019-05-02T17:58:14.151Z,9.67
2019-05-02T18:01:26.520Z,9.63
2019-05-02T18:04:28.233Z,9.71
2019-05-02T18:07:36.094Z,9.60
2019-05-02T18:10:37.535Z,9.41
2019-05-02T18:13:42.320Z,9.38
2019-05-02T18:16:47.116Z,9.50
2019-05-02T18:19:52.122Z,9.54
2019-05-02T18:22:56.002Z,9.53
2019-05-02T18:26:04.504Z,9.44
2019-05-02T18:29:06.858Z,9.69
2019-05-02T18:32:12.662Z,9.56
2019-05-02T18:35:16.634Z,9.74
2019-05-02T18:38:21.117Z,9.45
2019-05-02T18:41:26.269Z,9.72
2019-05-02T18:44:29.987Z,9.51
2019-05-02T18:47:33.711Z,9.47
2019-05-02T18:50:46.383Z,9.38
2019-05-02T18:53:47.386Z,9.39
2019-05-02T18:56:55.426Z,9.55
2019-05-02T18:59:58.199Z,9.53
2019-05-02T19:03:02.886Z,9.62
2019-05-02T19:06:06.709Z,9.41
2019-05-02T19:09:12.718Z,9.22
2019-05-02T19:12:22.551Z,9.15
2019-05-02T19:15:22.404Z,9.04
2019-05-02T19:18:26.137Z,9.40
2019-05-02T19:21:32.013Z,9.20
2019-05-02T19:24:36.598Z,9.08
2019-05-02T19:27:59.204Z,9.20
2019-05-02T19:31:06.883Z,9.05
2019-05-02T19:34:09.221Z,9.25
2019-05-02T19:37:12.939Z,9.33
2019-05-02T19:40:24.392Z,9.15
2019-05-02T19:43:25.446Z,9.22
2019-05-02T19:46:34.626Z,9.32
2019-05-02T19:49:35.011Z,9.15
2019-05-02T19:52:40.518Z,9.05
2019-05-02T19:55:44.681Z,9.03
2019-05-02T19:58:48.534Z,9.16
2019-05-02T20:01:52.379Z,9.27
2019-05-02T20:04:56.132Z,9.19
2019-05-02T20:08:00.001Z,9.17
2019-05-02T20:11:03.908Z,9.10
2019-05-02T20:14:09.677Z,9.10
2019-05-02T20:17:19.967Z,9.01
2019-05-02T20:21:04.331Z,8.98
2019-05-02T20:24:09.101Z,8.94
2019-05-02T20:27:13.543Z,9.03
2019-05-02T20:30:17.608Z,8.90
2019-05-02T20:33:22.196Z,8.90
2019-05-02T20:36:26.091Z,8.89
2019-05-02T20:39:31.662Z,8.83
2019-05-02T20:42:35.386Z,8.79
2019-05-02T20:45:39.799Z,8.79
2019-05-02T20:48:43.502Z,9.06
2019-05-02T20:51:47.469Z,8.64
2019-05-02T20:54:52.390Z,8.64
2019-05-02T20:57:56.300Z,8.49
2019-05-02T21:01:06.245Z,8.34
2019-05-02T21:04:05.755Z,8.38
2019-05-02T21:07:19.775Z,8.34
2019-05-02T21:10:36.015Z,8.38
2019-05-02T21:13:41.719Z,8.13
2019-05-02T21:16:45.618Z,8.27
2019-05-02T21:19:49.651Z,8.47
2019-05-02T21:22:53.410Z,8.03
2019-05-02T21:25:57.536Z,8.09
2019-05-02T21:29:01.274Z,8.05
2019-05-02T21:32:05.851Z,7.90
2019-05-02T21:35:11.778Z,8.02
2019-05-02T21:38:15.470Z,7.77
2019-05-02T21:41:19.627Z,7.90
2019-05-02T21:44:23.347Z,7.87
2019-05-02T21:47:27.424Z,7.81
2019-05-02T21:50:56.260Z,7.79
2019-05-02T21:54:28.380Z,7.63
2019-05-02T21:57:32.327Z,7.57
2019-05-02T22:01:02.042Z,7.73
2019-05-02T22:04:06.026Z,7.77
2019-05-02T22:07:12.055Z,7.44
2019-05-02T22:10:15.401Z,7.55
2019-05-02T22:13:19.187Z,7.49
2019-05-02T22:16:22.919Z,7.37
2019-05-02T22:19:26.621Z,7.44
2019-05-02T22:22:31.753Z,7.57
2019-05-02T22:25:36.012Z,7.36
2019-05-02T22:28:39.731Z,7.47
2019-05-02T22:31:43.802Z,7.35
2019-05-02T22:34:47.571Z,7.11
2019-05-02T22:37:53.007Z,7.24
2019-05-02T22:40:58.136Z,7.37
2019-05-02T22:44:02.045Z,7.29
2019-05-02T22:47:05.927Z,7.20
2019-05-02T22:50:13.925Z,7.38
2019-05-02T22:53:16.798Z,7.41
2019-05-02T22:56:22.241Z,7.20
2019-05-02T22:59:26.007Z,7.12
2019-05-02T23:02:30.000Z,6.99
2019-05-02T23:05:34.407Z,7.00
2019-05-02T23:08:38.200Z,6.92
2019-05-02T23:11:42.741Z,6.90
2019-05-02T23:14:46.850Z,6.96
2019-05-02T23:17:52.279Z,6.74
2019-05-02T23:20:56.144Z,6.88
2019-05-02T23:24:01.739Z,6.74
2019-05-02T23:27:27.455Z,6.71
2019-05-02T23:30:31.859Z,6.76
2019-05-02T23:33:54.630Z,6.64
2019-05-02T23:36:58.498Z,6.79
2019-05-02T23:40:02.289Z,6.84
2019-05-02T23:43:06.022Z,6.59
2019-05-02T23:46:11.604Z,6.95
2019-05-02T23:49:15.216Z,6.82
2019-05-02T23:52:19.405Z,6.85
2019-05-02T23:55:23.752Z,6.99
2019-05-02T23:58:27.788Z,6.83
